createdAt,value
2022-11-05T00:00:38.696Z,5.08
2022-11-05T00:03:24.603Z,5.06
2022-11-05T00:06:12.352Z,5.07
2022-11-05T00:09:00.342Z,5.08
2022-11-05T00:11:45.621Z,5.04
2022-11-05T00:14:31.418Z,5.01
2022-11-05T00:16:58.035Z,5.00
2022-11-05T00:19:24.660Z,4.97
2022-11-05T00:22:09.961Z,4.87
2022-11-05T00:24:55.343Z,4.82
2022-11-05T00:27:22.032Z,4.79
2022-11-05T00:29:48.657Z,4.82
2022-11-05T00:32:15.358Z,4.83
2022-11-05T00:34:41.992Z,4.82
2022-11-05T00:37:11.478Z,4.72
2022-11-05T00:39:38.128Z,4.69
2022-11-05T00:42:23.901Z,4.70
2022-11-05T00:45:02.891Z,4.79
2022-11-05T00:48:11.827Z,4.86
2022-11-05T00:50:38.503Z,4.79
2022-11-05T00:53:06.896Z,4.79
2022-11-05T00:55:45.157Z,4.83
2022-11-05T00:58:15.688Z,4.76
2022-11-05T01:00:53.299Z,4.71
2022-11-05T01:03:26.575Z,4.69
2022-11-05T01:05:58.295Z,4.65
2022-11-05T01:08:27.912Z,4.57
2022-11-05T01:10:58.604Z,4.64
2022-11-05T01:13:33.333Z,4.73
2022-11-05T01:16:09.856Z,4.68
2022-11-05T01:18:39.114Z,4.59
2022-11-05T01:21:15.724Z,4.58
2022-11-05T01:23:42.939Z,4.56
2022-11-05T01:26:09.959Z,4.52
2022-11-05T01:28:36.698Z,4.52
2022-11-05T01:31:03.566Z,4.54
2022-11-05T01:33:37.990Z,4.52
2022-11-05T01:36:06.265Z,4.53
2022-11-05T01:38:32.966Z,4.46
2022-11-05T01:40:59.572Z,4.63
2022-11-05T01:43:26.238Z,4.60
2022-11-05T01:45:58.794Z,4.55
2022-11-05T01:48:35.519Z,4.55
2022-11-05T01:51:14.764Z,4.46
2022-11-05T01:54:04.758Z,4.43
2022-11-05T01:56:45.055Z,4.40
2022-11-05T01:59:35.011Z,4.37
2022-11-05T02:02:05.586Z,4.31
2022-11-05T02:04:41.555Z,4.27
2022-11-05T02:07:14.335Z,4.32
2022-11-05T02:10:06.509Z,4.42
2022-11-05T02:12:37.505Z,4.34
2022-11-05T02:15:06.099Z,4.30
2022-11-05T02:18:34.539Z,4.28
2022-11-05T02:21:41.185Z,4.37
2022-11-05T02:24:56.391Z,4.47
2022-11-05T02:27:58.461Z,4.59
2022-11-05T02:31:01.790Z,4.53
2022-11-05T02:33:56.637Z,4.47
2022-11-05T02:36:46.414Z,4.53
2022-11-05T02:39:48.920Z,4.55
2022-11-05T02:43:17.414Z,4.49
2022-11-05T02:46:18.049Z,4.43
2022-11-05T02:48:52.496Z,4.39
2022-11-05T02:52:03.193Z,4.40
2022-11-05T02:55:10.328Z,4.37
2022-11-05T02:57:37.653Z,4.36
2022-11-05T03:00:42.996Z,4.34
2022-11-05T03:03:29.582Z,4.37
2022-11-05T03:06:43.060Z,4.34
2022-11-05T03:09:43.186Z,4.43
2022-11-05T03:13:07.111Z,4.48
2022-11-05T03:15:59.958Z,4.40
2022-11-05T03:19:06.788Z,4.37
2022-11-05T03:22:15.285Z,4.53
2022-11-05T03:24:55.447Z,4.50
2022-11-05T03:27:40.850Z,4.47
2022-11-05T03:30:14.337Z,4.48
2022-11-05T03:32:54.820Z,4.45
2022-11-05T03:35:35.216Z,4.46
2022-11-05T03:38:12.899Z,4.47
2022-11-05T03:40:44.802Z,4.44
2022-11-05T03:43:14.562Z,4.44
2022-11-05T03:45:53.672Z,4.36
2022-11-05T03:48:29.306Z,4.28
2022-11-05T03:51:19.560Z,4.16
2022-11-05T03:54:07.509Z,4.10
2022-11-05T03:57:09.006Z,4.11
2022-11-05T03:59:47.912Z,4.07
2022-11-05T04:02:20.169Z,4.08
2022-11-05T04:04:47.824Z,4.06
2022-11-05T04:07:33.769Z,4.03
2022-11-05T04:10:19.089Z,4.03
2022-11-05T04:13:04.356Z,4.09
2022-11-05T04:15:54.161Z,4.11
2022-11-05T04:18:23.980Z,4.08
2022-11-05T04:21:09.031Z,4.06
2022-11-05T04:23:54.563Z,4.05
2022-11-05T04:26:23.328Z,3.97
2022-11-05T04:29:10.988Z,3.95
2022-11-05T04:31:38.611Z,3.91
2022-11-05T04:34:05.906Z,4.06
2022-11-05T04:36:35.564Z,4.09
2022-11-05T04:39:04.996Z,3.97
2022-11-05T04:41:34.726Z,3.92
2022-11-05T04:44:01.474Z,3.93
2022-11-05T04:46:28.266Z,3.94
2022-11-05T04:48:54.899Z,3.95
2022-11-05T04:51:21.624Z,4.00
2022-11-05T04:53:48.266Z,3.97
2022-11-05T04:56:25.507Z,4.04
2022-11-05T04:58:52.955Z,4.09
2022-11-05T05:01:25.220Z,4.16
2022-11-05T05:03:54.250Z,4.13
2022-11-05T05:06:24.879Z,4.17
2022-11-05T05:08:52.355Z,4.17
2022-11-05T05:11:22.660Z,4.20
2022-11-05T05:13:50.511Z,4.26
2022-11-05T05:16:33.872Z,4.25
2022-11-05T06:59:10.130Z,4.46
2022-11-05T07:01:37.610Z,4.48
2022-11-05T07:04:05.163Z,4.55
2022-11-05T07:11:54.981Z,4.58
2022-11-05T09:03:42.575Z,7.50
2022-11-05T09:06:12.140Z,7.62
2022-11-05T09:08:38.927Z,7.39
2022-11-05T09:11:05.974Z,7.36
2022-11-05T09:13:32.667Z,7.91
2022-11-05T09:15:59.993Z,8.16
2022-11-05T09:18:26.909Z,8.50
2022-11-05T09:20:53.806Z,9.02
2022-11-05T09:23:20.603Z,9.43
2022-11-05T09:25:47.940Z,9.76
2022-11-05T09:28:22.123Z,10.04
2022-11-05T09:30:57.039Z,10.20
2022-11-05T09:33:27.472Z,10.57
2022-11-05T09:35:54.423Z,10.85
2022-11-05T09:38:26.181Z,10.91
2022-11-05T09:41:09.219Z,11.09
2022-11-05T09:43:49.058Z,11.07
2022-11-05T09:46:25.563Z,11.33
2022-11-05T09:49:04.292Z,11.42
2022-11-05T14:33:26.385Z,10.32
2022-11-05T14:36:20.356Z,10.12
2022-11-05T14:39:00.033Z,9.92
2022-11-05T17:13:28.610Z,8.01
2022-11-05T17:15:56.653Z,8.04
2022-11-05T17:18:24.202Z,7.98
2022-11-05T17:20:55.305Z,8.03
2022-11-05T17:23:26.763Z,8.02
2022-11-05T17:26:01.852Z,8.07
2022-11-05T17:58:17.528Z,7.64
2022-11-05T18:06:07.549Z,7.68
2022-11-05T18:43:32.382Z,7.67
2022-11-05T18:45:59.206Z,7.69
2022-11-05T18:48:26.080Z,7.70
2022-11-05T18:53:33.400Z,7.69
2022-11-05T19:41:57.706Z,7.53
2022-11-05T19:44:28.723Z,7.55
2022-11-05T19:46:55.552Z,7.58
